Terminal Aerodrome Forecast
Issued by NWS

Home | Current Version | Previous Version | Text Only | Print | Product List | Glossary On
Versions: 1 2 3 4 5 6 7 8 9 10 11 12 13 14 15 16 17
000
FTUS43 KDTX 200522
TAFDET
TAF
KDET 200522Z 2006/2106 22015G25KT P6SM BKN200
     FM201000 22010KT 3SM HZ BKN020
     FM201600 23010G18KT P6SM BKN025
     FM202300 24007KT 5SM BR OVC020=

USA.gov is the U.S. government's official web portal to all federal, state and local government web resources and services.